Time,TemperatureF,DewpointF,PressureIn,WindDirection,WindDirectionDegrees,WindSpeedMPH,WindSpeedGustMPH,Humidity,HourlyPrecipIn,Conditions,Clouds,dailyrainin,SoftwareType,DateUTC
2013-05-08 00:00:00,64.9,45.3,29.97,SE,135,8.5,10.7,49,0.00,,---,0.00,VWS V14.01,2013-05-08 05:00:00,
2013-05-08 00:05:00,64.9,45.3,29.97,ESE,112,6.0,8.1,49,0.00,,---,0.00,VWS V14.01,2013-05-08 05:05:00,
2013-05-08 00:10:00,64.9,45.3,29.97,ESE,112,3.8,6.0,49,0.00,,---,0.00,VWS V14.01,2013-05-08 05:10:00,
2013-05-08 00:15:00,64.9,45.3,30.00,SSW,202,4.5,4.5,49,0.00,,---,0.00,VWS V14.01,2013-05-08 05:15:00,
2013-05-08 00:20:00,64.9,45.3,30.00,ESE,112,6.3,7.4,49,0.00,,---,0.00,VWS V14.01,2013-05-08 05:20:00,
2013-05-08 00:26:00,65.1,45.0,30.00,ESE,112,3.6,8.5,48,0.00,,---,0.00,VWS V14.01,2013-05-08 05:26:00,
2013-05-08 00:32:00,65.1,45.0,30.00,East,90,0.0,7.6,48,0.00,,---,0.00,VWS V14.01,2013-05-08 05:32:00,
2013-05-08 00:37:00,65.3,45.1,30.00,East,90,2.9,6.0,48,0.00,,---,0.00,VWS V14.01,2013-05-08 05:37:00,
2013-05-08 00:42:00,65.1,45.0,30.03,ENE,68,2.7,3.4,48,0.00,,---,0.00,VWS V14.01,2013-05-08 05:42:00,
2013-05-08 00:47:00,65.1,45.5,30.03,NE,45,2.0,2.2,49,0.00,,---,0.00,VWS V14.01,2013-05-08 05:47:00,
2013-05-08 00:52:00,64.9,45.3,30.03,NNE,22,2.7,3.6,49,0.00,,---,0.00,VWS V14.01,2013-05-08 05:52:00,
2013-05-08 00:58:00,64.6,45.5,30.03,NNW,338,0.0,3.8,50,0.00,,---,0.00,VWS V14.01,2013-05-08 05:58:00,
2013-05-08 01:03:00,64.2,45.7,30.03,NNW,338,0.0,2.0,51,0.00,,---,0.00,VWS V14.01,2013-05-08 06:03:00,
2013-05-08 01:09:00,63.7,46.7,30.03,North,0,2.0,2.0,54,0.00,,---,0.00,VWS V14.01,2013-05-08 06:09:00,
2013-05-08 01:15:00,62.2,49.9,30.03,NE,45,3.4,3.4,64,0.00,,---,0.00,VWS V14.01,2013-05-08 06:15:00,
2013-05-08 01:21:00,61.2,51.3,30.03,NE,45,4.0,5.4,70,0.05,,---,0.05,VWS V14.01,2013-05-08 06:21:00,
2013-05-08 01:26:00,60.4,52.1,30.03,NE,45,0.0,2.9,74,0.05,,---,0.05,VWS V14.01,2013-05-08 06:26:00,
2013-05-08 01:31:00,59.9,53.4,30.03,ENE,68,4.3,4.5,79,0.05,,---,0.05,VWS V14.01,2013-05-08 06:31:00,
2013-05-08 01:37:00,59.4,54.2,30.03,ENE,68,3.1,3.8,83,0.05,,---,0.05,VWS V14.01,2013-05-08 06:37:00,
2013-05-08 01:43:00,59.2,54.4,30.03,ENE,68,4.7,4.7,84,0.05,,---,0.05,VWS V14.01,2013-05-08 06:43:00,
2013-05-08 01:48:00,59.0,53.8,30.03,ENE,68,0.0,2.0,83,0.05,,---,0.05,VWS V14.01,2013-05-08 06:48:00,
2013-05-08 01:53:00,59.0,53.8,30.03,ESE,112,3.4,3.4,83,0.05,,---,0.05,VWS V14.01,2013-05-08 06:53:00,
2013-05-08 01:58:00,58.8,53.7,30.06,ENE,68,0.0,0.0,83,0.05,,---,0.05,VWS V14.01,2013-05-08 06:58:00,
2013-05-08 02:03:00,58.6,53.8,30.06,ESE,112,0.0,0.0,84,0.05,,---,0.05,VWS V14.01,2013-05-08 07:03:00,
2013-05-08 02:08:00,58.6,54.2,30.06,East,90,0.0,0.9,85,0.05,,---,0.05,VWS V14.01,2013-05-08 07:08:00,
2013-05-08 02:13:00,58.5,54.6,30.03,SE,135,0.0,1.1,87,0.05,,---,0.05,VWS V14.01,2013-05-08 07:13:00,
2013-05-08 02:19:00,58.3,54.8,30.03,SSW,202,0.0,2.9,88,0.00,,---,0.05,VWS V14.01,2013-05-08 07:19:00,
2013-05-08 02:24:00,58.3,55.1,30.03,ESE,112,0.0,3.8,89,0.00,,---,0.05,VWS V14.01,2013-05-08 07:24:00,
2013-05-08 02:29:00,58.3,55.4,30.03,SSE,158,3.4,4.7,90,0.00,,---,0.05,VWS V14.01,2013-05-08 07:29:00,
2013-05-08 02:34:00,58.3,55.7,30.03,SSE,158,0.0,5.4,91,0.00,,---,0.05,VWS V14.01,2013-05-08 07:34:00,
2013-05-08 02:40:00,58.1,55.5,30.03,SSE,158,4.0,4.0,91,0.03,,---,0.08,VWS V14.01,2013-05-08 07:40:00,
2013-05-08 02:45:00,58.3,55.4,30.00,South,180,4.0,6.5,90,0.03,,---,0.08,VWS V14.01,2013-05-08 07:45:00,
2013-05-08 02:50:00,58.3,55.4,30.00,SE,135,10.7,16.3,90,0.03,,---,0.08,VWS V14.01,2013-05-08 07:50:00,
2013-05-08 02:56:00,58.5,54.9,30.00,NE,45,4.0,4.0,88,0.03,,---,0.08,VWS V14.01,2013-05-08 07:56:00,
2013-05-08 03:01:00,58.8,55.0,30.00,East,90,3.6,3.6,87,0.03,,---,0.08,VWS V14.01,2013-05-08 08:01:00,
2013-05-08 03:06:00,58.8,54.7,30.00,NE,45,2.5,4.0,86,0.03,,---,0.08,VWS V14.01,2013-05-08 08:06:00,
2013-05-08 03:11:00,58.8,55.0,30.00,NNW,338,3.8,6.0,87,0.03,,---,0.08,VWS V14.01,2013-05-08 08:11:00,
2013-05-08 03:16:00,58.8,55.6,30.03,NW,315,6.3,7.8,89,0.03,,---,0.08,VWS V14.01,2013-05-08 08:16:00,
2013-05-08 03:21:00,58.5,55.8,30.03,NNW,338,8.7,8.7,91,0.03,,---,0.08,VWS V14.01,2013-05-08 08:21:00,
2013-05-08 03:26:00,58.3,55.4,30.03,NE,45,3.8,7.4,90,0.03,,---,0.08,VWS V14.01,2013-05-08 08:26:00,
2013-05-08 03:31:00,58.5,55.2,30.03,NW,315,6.7,8.7,89,0.12,,---,0.17,VWS V14.01,2013-05-08 08:31:00,
2013-05-08 03:36:00,58.5,55.5,30.03,NW,315,4.3,7.8,90,0.12,,---,0.17,VWS V14.01,2013-05-08 08:36:00,
2013-05-08 03:41:00,58.1,55.8,30.03,North,0,7.8,15.2,92,0.09,,---,0.17,VWS V14.01,2013-05-08 08:41:00,
2013-05-08 03:46:00,57.9,55.9,30.06,NE,45,5.4,8.1,93,0.09,,---,0.17,VWS V14.01,2013-05-08 08:46:00,
2013-05-08 03:51:00,57.7,55.7,30.06,NNE,22,10.3,10.3,93,0.09,,---,0.17,VWS V14.01,2013-05-08 08:51:00,
2013-05-08 03:56:00,57.6,55.8,30.06,NW,315,12.5,12.5,94,0.17,,---,0.25,VWS V14.01,2013-05-08 08:56:00,
2013-05-08 04:02:00,57.6,56.1,30.09,ESE,112,7.8,9.8,95,0.17,,---,0.25,VWS V14.01,2013-05-08 09:02:00,
2013-05-08 04:07:00,57.4,56.0,30.09,East,90,5.8,10.7,95,0.17,,---,0.25,VWS V14.01,2013-05-08 09:07:00,
2013-05-08 04:12:00,57.4,56.0,30.03,East,90,7.8,13.2,95,0.17,,---,0.25,VWS V14.01,2013-05-08 09:12:00,
2013-05-08 04:17:00,57.4,56.0,30.03,NE,45,10.7,13.2,95,0.17,,---,0.25,VWS V14.01,2013-05-08 09:17:00,
2013-05-08 04:22:00,57.4,56.0,30.03,ESE,112,13.2,13.2,95,0.17,,---,0.25,VWS V14.01,2013-05-08 09:22:00,
2013-05-08 04:27:00,57.4,56.2,30.00,East,90,9.0,12.8,96,0.17,,---,0.25,VWS V14.01,2013-05-08 09:27:00,
2013-05-08 04:32:00,57.4,56.2,30.00,SE,135,4.9,11.0,96,0.08,,---,0.25,VWS V14.01,2013-05-08 09:32:00,
2013-05-08 04:37:00,57.4,56.0,30.00,East,90,2.5,4.3,95,0.08,,---,0.25,VWS V14.01,2013-05-08 09:37:00,
2013-05-08 04:42:00,57.4,56.2,30.00,ENE,68,4.0,7.4,96,0.08,,---,0.25,VWS V14.01,2013-05-08 09:42:00,
2013-05-08 04:47:00,57.4,56.2,30.00,ENE,68,7.2,7.2,96,0.08,,---,0.25,VWS V14.01,2013-05-08 09:47:00,
2013-05-08 04:52:00,57.6,56.4,30.00,East,90,8.7,13.9,96,0.08,,---,0.25,VWS V14.01,2013-05-08 09:52:00,
2013-05-08 04:57:00,57.7,56.3,30.00,SSE,158,7.6,10.1,95,0.00,,---,0.25,VWS V14.01,2013-05-08 09:57:00,
2013-05-08 05:02:00,57.7,56.3,30.00,East,90,6.0,9.2,95,0.00,,---,0.25,VWS V14.01,2013-05-08 10:02:00,
2013-05-08 05:07:00,57.7,56.3,30.00,SE,135,10.7,10.7,95,0.00,,---,0.25,VWS V14.01,2013-05-08 10:07:00,
2013-05-08 05:12:00,57.9,56.5,30.00,East,90,6.0,9.0,95,0.00,,---,0.25,VWS V14.01,2013-05-08 10:12:00,
2013-05-08 05:17:00,58.1,56.4,30.00,SE,135,6.3,12.1,94,0.00,,---,0.25,VWS V14.01,2013-05-08 10:17:00,
2013-05-08 05:22:00,58.3,56.6,30.00,ESE,112,6.5,12.5,94,0.00,,---,0.25,VWS V14.01,2013-05-08 10:22:00,
2013-05-08 05:27:00,58.3,56.6,29.97,East,90,7.8,15.2,94,0.00,,---,0.25,VWS V14.01,2013-05-08 10:27:00,
2013-05-08 05:32:00,58.1,56.1,29.97,East,90,10.5,10.5,93,0.00,,---,0.25,VWS V14.01,2013-05-08 10:32:00,
2013-05-08 05:37:00,58.1,56.4,29.97,East,90,8.5,11.0,94,0.00,,---,0.25,VWS V14.01,2013-05-08 10:37:00,
2013-05-08 05:42:00,58.1,56.4,29.97,East,90,6.0,10.1,94,0.00,,---,0.25,VWS V14.01,2013-05-08 10:42:00,
2013-05-08 05:47:00,57.9,56.2,29.97,SSE,158,3.1,4.3,94,0.00,,---,0.25,VWS V14.01,2013-05-08 10:47:00,
2013-05-08 05:52:00,57.9,56.2,29.97,SSE,158,2.0,2.7,94,0.00,,---,0.25,VWS V14.01,2013-05-08 10:52:00,
2013-05-08 05:57:00,57.9,56.2,29.97,ESE,112,5.8,5.8,94,0.00,,---,0.25,VWS V14.01,2013-05-08 10:57:00,
2013-05-08 06:02:00,57.9,56.2,29.97,SSE,158,4.0,4.3,94,0.00,,---,0.25,VWS V14.01,2013-05-08 11:02:00,
2013-05-08 06:07:00,57.9,56.5,29.97,ESE,112,6.5,8.1,95,0.00,,---,0.25,VWS V14.01,2013-05-08 11:07:00,
2013-05-08 06:12:00,57.9,56.5,29.97,ESE,112,5.8,7.4,95,0.00,,---,0.25,VWS V14.01,2013-05-08 11:12:00,
2013-05-08 06:17:00,57.7,56.3,29.97,SE,135,4.9,9.8,95,0.00,,---,0.25,VWS V14.01,2013-05-08 11:17:00,
2013-05-08 06:22:00,57.6,56.1,29.97,SE,135,5.4,7.4,95,0.00,,---,0.25,VWS V14.01,2013-05-08 11:22:00,
2013-05-08 06:28:00,57.6,56.1,29.97,SE,135,6.0,6.3,95,0.00,,---,0.25,VWS V14.01,2013-05-08 11:28:00,
2013-05-08 06:33:00,57.6,56.1,29.97,ESE,112,3.6,6.3,95,0.00,,---,0.25,VWS V14.01,2013-05-08 11:33:00,
2013-05-08 06:38:00,57.6,56.4,29.97,SE,135,3.6,6.5,96,0.00,,---,0.25,VWS V14.01,2013-05-08 11:38:00,
2013-05-08 06:43:00,57.6,56.4,29.97,ESE,112,5.8,5.8,96,0.00,,---,0.25,VWS V14.01,2013-05-08 11:43:00,
2013-05-08 06:48:00,57.6,56.4,29.97,SSE,158,2.2,4.7,96,0.00,,---,0.25,VWS V14.01,2013-05-08 11:48:00,
2013-05-08 06:53:00,57.9,56.8,29.97,SE,135,3.1,4.9,96,0.00,,---,0.25,VWS V14.01,2013-05-08 11:53:00,
2013-05-08 06:58:00,58.3,56.9,29.97,SSE,158,4.3,7.4,95,0.00,,---,0.25,VWS V14.01,2013-05-08 11:58:00,
2013-05-08 07:04:00,58.8,56.8,29.97,South,180,2.9,13.2,93,0.13,,---,0.38,VWS V14.01,2013-05-08 12:04:00,
2013-05-08 07:09:00,59.4,56.7,29.97,SSW,202,9.8,9.8,91,0.13,,---,0.38,VWS V14.01,2013-05-08 12:09:00,
2013-05-08 07:15:00,60.1,56.2,30.00,SE,135,7.2,9.6,87,0.13,,---,0.38,VWS V14.01,2013-05-08 12:15:00,
2013-05-08 07:21:00,60.6,56.1,30.00,SE,135,8.5,12.5,85,0.13,,---,0.38,VWS V14.01,2013-05-08 12:21:00,
2013-05-08 07:26:00,60.8,55.9,30.00,SSW,202,6.5,6.5,84,0.13,,---,0.38,VWS V14.01,2013-05-08 12:26:00,
2013-05-08 07:32:00,61.0,55.8,30.00,SSE,158,4.9,5.6,83,0.13,,---,0.38,VWS V14.01,2013-05-08 12:32:00,
2013-05-08 07:37:00,60.8,55.3,30.00,ESE,112,4.0,7.6,82,0.13,,---,0.38,VWS V14.01,2013-05-08 12:37:00,
2013-05-08 07:43:00,60.8,55.3,30.00,SSE,158,4.3,4.3,82,0.13,,---,0.38,VWS V14.01,2013-05-08 12:43:00,
2013-05-08 07:49:00,60.6,55.4,30.00,South,180,3.8,6.0,83,0.13,,---,0.38,VWS V14.01,2013-05-08 12:49:00,
2013-05-08 07:54:00,60.4,55.3,30.00,ESE,112,11.0,15.4,83,0.13,,---,0.38,VWS V14.01,2013-05-08 12:54:00,
2013-05-08 07:59:00,60.3,55.4,30.00,ESE,112,3.8,5.6,84,0.13,,---,0.38,VWS V14.01,2013-05-08 12:59:00,
2013-05-08 08:04:00,60.3,55.1,30.00,South,180,3.1,6.5,83,0.00,,---,0.38,VWS V14.01,2013-05-08 13:04:00,
2013-05-08 08:09:00,60.1,55.2,30.00,ENE,68,3.4,10.5,84,0.00,,---,0.38,VWS V14.01,2013-05-08 13:09:00,
2013-05-08 08:15:00,59.7,55.5,30.03,SSE,158,5.6,5.6,86,0.00,,---,0.38,VWS V14.01,2013-05-08 13:15:00,
2013-05-08 08:20:00,59.5,55.7,30.03,WSW,248,3.4,5.4,87,0.00,,---,0.38,VWS V14.01,2013-05-08 13:20:00,
2013-05-08 08:26:00,59.4,55.8,30.03,South,180,5.6,5.6,88,0.00,,---,0.38,VWS V14.01,2013-05-08 13:26:00,
2013-05-08 08:31:00,59.0,56.1,30.00,SSW,202,4.9,4.9,90,0.00,,---,0.38,VWS V14.01,2013-05-08 13:31:00,
2013-05-08 08:36:00,58.8,56.2,30.00,SSE,158,9.4,10.3,91,0.00,,---,0.38,VWS V14.01,2013-05-08 13:36:00,
2013-05-08 08:41:00,58.8,56.2,30.00,South,180,3.1,6.3,91,0.00,,---,0.38,VWS V14.01,2013-05-08 13:41:00,
2013-05-08 08:46:00,58.6,56.3,30.03,SE,135,7.4,7.4,92,0.04,,---,0.42,VWS V14.01,2013-05-08 13:46:00,
2013-05-08 08:51:00,58.5,56.2,30.03,SSE,158,10.7,13.2,92,0.04,,---,0.42,VWS V14.01,2013-05-08 13:51:00,
2013-05-08 08:57:00,58.5,55.8,30.00,South,180,10.3,10.5,91,0.04,,---,0.42,VWS V14.01,2013-05-08 13:57:00,
2013-05-08 09:02:00,58.5,55.8,30.00,SSE,158,13.2,23.5,91,0.04,,---,0.42,VWS V14.01,2013-05-08 14:02:00,
2013-05-08 09:07:00,58.5,55.8,30.00,SE,135,17.2,17.2,91,0.04,,---,0.42,VWS V14.01,2013-05-08 14:07:00,
2013-05-08 09:12:00,58.6,56.0,29.97,SSW,202,5.8,6.7,91,0.04,,---,0.42,VWS V14.01,2013-05-08 14:12:00,
2013-05-08 09:18:00,58.8,55.9,29.97,SW,225,8.1,10.3,90,0.04,,---,0.42,VWS V14.01,2013-05-08 14:18:00,
2013-05-08 09:23:00,59.0,55.8,29.97,SSW,202,3.1,7.8,89,0.04,,---,0.42,VWS V14.01,2013-05-08 14:23:00,
2013-05-08 09:29:00,59.2,55.3,29.97,SE,135,7.2,10.3,87,0.04,,---,0.42,VWS V14.01,2013-05-08 14:29:00,
2013-05-08 09:34:00,59.4,55.5,29.97,NE,45,6.5,8.1,87,0.04,,---,0.42,VWS V14.01,2013-05-08 14:34:00,
2013-05-08 09:39:00,59.5,55.7,29.97,SE,135,3.8,8.7,87,0.04,,---,0.42,VWS V14.01,2013-05-08 14:39:00,
2013-05-08 09:44:00,59.7,55.8,29.97,SSW,202,2.7,3.1,87,0.04,,---,0.46,VWS V14.01,2013-05-08 14:44:00,
2013-05-08 09:49:00,59.9,55.7,29.97,ESE,112,3.8,10.7,86,0.04,,---,0.46,VWS V14.01,2013-05-08 14:49:00,
2013-05-08 09:54:00,60.3,56.1,29.97,South,180,7.4,7.4,86,0.04,,---,0.46,VWS V14.01,2013-05-08 14:54:00,
2013-05-08 10:00:00,60.6,56.1,29.97,SSE,158,3.6,4.7,85,0.04,,---,0.46,VWS V14.01,2013-05-08 15:00:00,
2013-05-08 10:05:00,60.8,55.9,29.97,South,180,6.0,6.0,84,0.04,,---,0.46,VWS V14.01,2013-05-08 15:05:00,
2013-05-08 10:10:00,61.0,55.8,29.97,SE,135,3.8,5.8,83,0.04,,---,0.46,VWS V14.01,2013-05-08 15:10:00,
2013-05-08 10:15:00,61.2,56.0,29.97,South,180,4.7,7.6,83,0.04,,---,0.46,VWS V14.01,2013-05-08 15:15:00,
2013-05-08 10:21:00,61.3,55.8,29.97,East,90,6.0,9.8,82,0.04,,---,0.46,VWS V14.01,2013-05-08 15:21:00,
2013-05-08 10:26:00,61.5,56.0,29.97,East,90,7.2,8.7,82,0.04,,---,0.46,VWS V14.01,2013-05-08 15:26:00,
2013-05-08 10:31:00,61.9,56.7,29.94,SE,135,3.1,4.5,83,0.04,,---,0.46,VWS V14.01,2013-05-08 15:31:00,
2013-05-08 10:37:00,62.4,56.9,29.94,SE,135,2.9,4.9,82,0.04,,---,0.46,VWS V14.01,2013-05-08 15:37:00,
2013-05-08 10:42:00,62.6,56.0,29.97,SSE,158,3.4,7.2,79,0.00,,---,0.46,VWS V14.01,2013-05-08 15:42:00,
2013-05-08 10:47:00,63.1,56.5,29.97,South,180,3.4,7.8,79,0.00,,---,0.46,VWS V14.01,2013-05-08 15:47:00,
2013-05-08 10:53:00,63.9,56.2,29.97,SSE,158,9.6,12.3,76,0.00,,---,0.46,VWS V14.01,2013-05-08 15:53:00,
2013-05-08 10:58:00,64.6,55.7,29.94,South,180,8.1,8.7,73,0.00,,---,0.46,VWS V14.01,2013-05-08 15:58:00,
2013-05-08 11:03:00,64.8,55.2,29.94,SSE,158,4.5,10.5,71,0.00,,---,0.46,VWS V14.01,2013-05-08 16:03:00,
2013-05-08 11:08:00,65.8,56.2,29.94,South,180,3.8,4.0,71,0.00,,---,0.46,VWS V14.01,2013-05-08 16:08:00,
2013-05-08 11:13:00,67.3,56.8,29.94,SSW,202,7.2,8.7,69,0.00,,---,0.46,VWS V14.01,2013-05-08 16:13:00,
2013-05-08 11:18:00,68.4,57.0,29.94,ESE,112,9.4,9.4,67,0.00,,---,0.46,VWS V14.01,2013-05-08 16:18:00,
2013-05-08 11:24:00,68.5,55.5,29.94,SE,135,5.4,8.5,63,0.00,,---,0.46,VWS V14.01,2013-05-08 16:24:00,
2013-05-08 11:29:00,68.7,56.5,29.97,SSW,202,3.1,10.1,65,0.00,,---,0.46,VWS V14.01,2013-05-08 16:29:00,
2013-05-08 11:35:00,69.3,57.0,29.97,South,180,8.7,8.7,65,0.00,,---,0.46,VWS V14.01,2013-05-08 16:35:00,
2013-05-08 11:40:00,69.3,56.1,29.97,SSW,202,4.0,10.3,63,0.00,,---,0.46,VWS V14.01,2013-05-08 16:40:00,
2013-05-08 11:46:00,70.3,56.3,29.97,East,90,9.6,9.6,61,0.00,,---,0.46,VWS V14.01,2013-05-08 16:46:00,
2013-05-08 11:52:00,70.9,56.3,29.97,South,180,7.2,7.2,60,0.00,,---,0.46,VWS V14.01,2013-05-08 16:52:00,
2013-05-08 11:57:00,72.3,58.1,29.94,SSW,202,2.7,5.8,61,0.00,,---,0.46,VWS V14.01,2013-05-08 16:57:00,
2013-05-08 12:03:00,72.5,55.9,29.94,SSW,202,3.1,9.8,56,0.00,,---,0.46,VWS V14.01,2013-05-08 17:03:00,
2013-05-08 12:08:00,73.6,57.4,29.94,SE,135,3.6,14.5,57,0.00,,---,0.46,VWS V14.01,2013-05-08 17:08:00,
2013-05-08 12:13:00,74.1,56.9,29.97,South,180,10.5,10.5,55,0.00,,---,0.46,VWS V14.01,2013-05-08 17:13:00,
2013-05-08 12:18:00,75.2,56.4,29.97,SE,135,6.5,6.5,52,0.00,,---,0.46,VWS V14.01,2013-05-08 17:18:00,
2013-05-08 12:24:00,75.4,56.0,29.97,SSW,202,5.4,6.5,51,0.00,,---,0.46,VWS V14.01,2013-05-08 17:24:00,
2013-05-08 12:29:00,76.1,57.2,29.94,South,180,7.6,7.6,52,0.00,,---,0.46,VWS V14.01,2013-05-08 17:29:00,
2013-05-08 12:34:00,76.6,57.2,29.94,East,90,4.3,7.6,51,0.00,,---,0.46,VWS V14.01,2013-05-08 17:34:00,
2013-05-08 12:39:00,77.2,56.6,29.94,SW,225,8.7,10.1,49,0.00,,---,0.46,VWS V14.01,2013-05-08 17:39:00,
2013-05-08 12:45:00,76.1,55.0,29.97,SSE,158,4.5,7.2,48,0.00,,---,0.46,VWS V14.01,2013-05-08 17:45:00,
2013-05-08 12:50:00,75.7,55.2,29.97,SSW,202,9.8,9.8,49,0.00,,---,0.46,VWS V14.01,2013-05-08 17:50:00,
2013-05-08 12:55:00,76.8,55.7,29.97,SSE,158,4.3,4.7,48,0.00,,---,0.46,VWS V14.01,2013-05-08 17:55:00,
2013-05-08 13:01:00,77.0,54.7,29.94,SSE,158,7.2,8.7,46,0.00,,---,0.46,VWS V14.01,2013-05-08 18:01:00,
2013-05-08 13:06:00,76.1,55.0,29.94,SSE,158,6.0,6.0,48,0.00,,---,0.46,VWS V14.01,2013-05-08 18:06:00,
2013-05-08 13:11:00,75.9,54.8,29.94,SSE,158,9.2,9.2,48,0.00,,---,0.46,VWS V14.01,2013-05-08 18:11:00,
2013-05-08 13:17:00,76.8,56.2,29.94,SW,225,4.0,4.7,49,0.00,,---,0.46,VWS V14.01,2013-05-08 18:17:00,
2013-05-08 13:22:00,76.3,55.2,29.94,SW,225,10.1,10.1,48,0.00,,---,0.46,VWS V14.01,2013-05-08 18:22:00,
2013-05-08 13:28:00,76.6,56.1,29.97,South,180,7.6,7.6,49,0.00,,---,0.46,VWS V14.01,2013-05-08 18:28:00,
2013-05-08 13:34:00,77.2,55.4,29.97,SW,225,6.3,8.1,47,0.00,,---,0.46,VWS V14.01,2013-05-08 18:34:00,
2013-05-08 13:39:00,77.5,55.7,29.97,South,180,3.1,12.1,47,0.00,,---,0.46,VWS V14.01,2013-05-08 18:39:00,
2013-05-08 13:44:00,77.2,54.8,29.94,SSW,202,8.5,10.1,46,0.00,,---,0.46,VWS V14.01,2013-05-08 18:44:00,
2013-05-08 13:49:00,77.2,55.4,29.94,SSE,158,5.6,6.5,47,0.00,,---,0.46,VWS V14.01,2013-05-08 18:49:00,
2013-05-08 13:55:00,78.4,56.6,29.94,South,180,2.7,13.2,47,0.00,,---,0.46,VWS V14.01,2013-05-08 18:55:00,
2013-05-08 14:00:00,79.7,57.1,29.97,SSE,158,1.1,7.4,46,0.00,,---,0.46,VWS V14.01,2013-05-08 19:00:00,
2013-05-08 14:05:00,79.3,56.2,29.97,South,180,6.5,6.5,45,0.00,,---,0.46,VWS V14.01,2013-05-08 19:05:00,
2013-05-08 14:10:00,78.3,55.2,29.97,SSW,202,4.3,6.7,45,0.00,,---,0.46,VWS V14.01,2013-05-08 19:10:00,
2013-05-08 14:16:00,78.4,55.4,29.97,SSE,158,5.8,7.6,45,0.00,,---,0.46,VWS V14.01,2013-05-08 19:16:00,
2013-05-08 14:21:00,79.2,56.0,29.97,SSE,158,4.7,5.8,45,0.00,,---,0.46,VWS V14.01,2013-05-08 19:21:00,
2013-05-08 14:26:00,79.7,55.9,29.97,SW,225,3.1,9.6,44,0.00,,---,0.46,VWS V14.01,2013-05-08 19:26:00,
2013-05-08 14:31:00,79.9,56.7,29.97,East,90,7.2,7.2,45,0.00,,---,0.46,VWS V14.01,2013-05-08 19:31:00,
2013-05-08 14:37:00,80.4,57.2,29.97,SSW,202,6.3,6.3,45,0.00,,---,0.46,VWS V14.01,2013-05-08 19:37:00,
2013-05-08 14:42:00,79.7,55.9,29.97,SSW,202,3.4,9.2,44,0.00,,---,0.46,VWS V14.01,2013-05-08 19:42:00,
2013-05-08 14:47:00,81.3,57.3,29.97,SSW,202,3.1,6.5,44,0.00,,---,0.46,VWS V14.01,2013-05-08 19:47:00,
2013-05-08 14:52:00,82.9,58.2,29.97,SSW,202,3.6,9.6,43,0.00,,---,0.46,VWS V14.01,2013-05-08 19:52:00,
2013-05-08 14:58:00,81.9,56.5,29.97,SW,225,4.3,10.5,42,0.00,,---,0.46,VWS V14.01,2013-05-08 19:58:00,
2013-05-08 15:03:00,80.6,55.4,29.97,SSE,158,3.8,10.1,42,0.00,,---,0.46,VWS V14.01,2013-05-08 20:03:00,
2013-05-08 15:09:00,80.8,56.2,29.97,SSE,158,2.0,5.4,43,0.00,,---,0.46,VWS V14.01,2013-05-08 20:09:00,
2013-05-08 15:15:00,82.0,56.7,29.94,SSW,202,5.8,6.5,42,0.00,,---,0.46,VWS V14.01,2013-05-08 20:15:00,
2013-05-08 15:20:00,82.9,57.5,29.94,West,270,6.0,6.0,42,0.00,,---,0.46,VWS V14.01,2013-05-08 20:20:00,
2013-05-08 15:25:00,81.5,55.5,29.94,SSE,158,7.4,8.1,41,0.00,,---,0.46,VWS V14.01,2013-05-08 20:25:00,
2013-05-08 15:31:00,81.5,56.2,29.94,SW,225,6.3,8.5,42,0.00,,---,0.46,VWS V14.01,2013-05-08 20:31:00,
2013-05-08 15:36:00,83.1,58.3,29.94,South,180,6.0,6.0,43,0.00,,---,0.46,VWS V14.01,2013-05-08 20:36:00,
2013-05-08 15:41:00,83.5,58.7,29.94,SSW,202,2.9,7.2,43,0.00,,---,0.46,VWS V14.01,2013-05-08 20:41:00,
2013-05-08 15:47:00,83.1,57.7,29.94,SSE,158,5.8,6.5,42,0.00,,---,0.46,VWS V14.01,2013-05-08 20:47:00,
2013-05-08 15:52:00,82.6,57.2,29.94,South,180,6.0,7.8,42,0.00,,---,0.46,VWS V14.01,2013-05-08 20:52:00,
2013-05-08 15:57:00,82.4,57.7,29.91,South,180,3.4,3.4,43,0.00,,---,0.46,VWS V14.01,2013-05-08 20:57:00,
2013-05-08 16:02:00,82.0,58.0,29.91,SSW,202,3.1,8.1,44,0.00,,---,0.46,VWS V14.01,2013-05-08 21:02:00,
2013-05-08 16:08:00,81.7,57.7,29.91,SW,225,4.9,8.7,44,0.00,,---,0.46,VWS V14.01,2013-05-08 21:08:00,
2013-05-08 16:13:00,81.0,57.0,29.91,SSW,202,5.4,10.1,44,0.00,,---,0.46,VWS V14.01,2013-05-08 21:13:00,
2013-05-08 16:18:00,81.0,57.0,29.91,South,180,5.8,8.1,44,0.00,,---,0.46,VWS V14.01,2013-05-08 21:18:00,
2013-05-08 16:23:00,81.7,58.3,29.91,SE,135,5.4,5.8,45,0.00,,---,0.46,VWS V14.01,2013-05-08 21:23:00,
2013-05-08 16:29:00,81.3,58.0,29.91,SSE,158,5.8,5.8,45,0.00,,---,0.46,VWS V14.01,2013-05-08 21:29:00,
2013-05-08 16:34:00,80.4,57.8,29.91,South,180,4.3,5.8,46,0.00,,---,0.46,VWS V14.01,2013-05-08 21:34:00,
2013-05-08 16:40:00,79.7,57.7,29.91,SSW,202,2.7,4.3,47,0.00,,---,0.46,VWS V14.01,2013-05-08 21:40:00,
2013-05-08 16:45:00,79.7,57.7,29.88,West,270,3.6,7.8,47,0.00,,---,0.46,VWS V14.01,2013-05-08 21:45:00,
2013-05-08 16:50:00,79.9,58.5,29.88,SSW,202,1.1,1.6,48,0.00,,---,0.46,VWS V14.01,2013-05-08 21:50:00,
2013-05-08 16:55:00,79.9,58.5,29.88,South,180,2.2,3.6,48,0.00,,---,0.46,VWS V14.01,2013-05-08 21:55:00,
2013-05-08 17:00:00,79.9,58.5,29.91,SSW,202,4.0,6.5,48,0.00,,---,0.46,VWS V14.01,2013-05-08 22:00:00,
2013-05-08 17:05:00,79.9,58.5,29.91,ESE,112,2.9,6.9,48,0.00,,---,0.46,VWS V14.01,2013-05-08 22:05:00,
2013-05-08 17:11:00,79.7,58.3,29.91,South,180,3.4,4.0,48,0.00,,---,0.46,VWS V14.01,2013-05-08 22:11:00,
2013-05-08 17:16:00,79.2,57.8,29.88,SSW,202,3.1,4.3,48,0.00,,---,0.46,VWS V14.01,2013-05-08 22:16:00,
2013-05-08 17:21:00,79.2,58.4,29.88,South,180,1.6,4.0,49,0.00,,---,0.46,VWS V14.01,2013-05-08 22:21:00,
2013-05-08 17:26:00,79.3,58.0,29.88,South,180,3.8,3.8,48,0.00,,---,0.46,VWS V14.01,2013-05-08 22:26:00,
2013-05-08 17:32:00,79.5,58.1,29.91,South,180,3.4,4.3,48,0.00,,---,0.46,VWS V14.01,2013-05-08 22:32:00,
2013-05-08 17:37:00,79.2,58.4,29.91,South,180,0.9,2.2,49,0.00,,---,0.46,VWS V14.01,2013-05-08 22:37:00,
2013-05-08 17:42:00,79.2,58.4,29.91,SSW,202,2.9,5.8,49,0.00,,---,0.46,VWS V14.01,2013-05-08 22:42:00,
2013-05-08 17:47:00,79.2,58.4,29.91,SSW,202,0.0,2.9,49,0.00,,---,0.46,VWS V14.01,2013-05-08 22:47:00,
2013-05-08 17:53:00,79.2,58.4,29.91,SSE,158,3.8,5.4,49,0.00,,---,0.46,VWS V14.01,2013-05-08 22:53:00,
2013-05-08 17:58:00,78.8,58.0,29.91,SW,225,3.6,3.8,49,0.00,,---,0.46,VWS V14.01,2013-05-08 22:58:00,
2013-05-08 18:03:00,78.6,58.4,29.91,SSW,202,2.7,2.9,50,0.00,,---,0.46,VWS V14.01,2013-05-08 23:03:00,
2013-05-08 18:08:00,78.6,59.0,29.91,SSW,202,0.9,3.6,51,0.00,,---,0.46,VWS V14.01,2013-05-08 23:08:00,
2013-05-08 18:14:00,78.8,58.6,29.91,SSE,158,0.0,0.0,50,0.00,,---,0.46,VWS V14.01,2013-05-08 23:14:00,
2013-05-08 18:19:00,78.8,58.6,29.91,SSE,158,0.9,1.6,50,0.00,,---,0.46,VWS V14.01,2013-05-08 23:19:00,
2013-05-08 18:24:00,78.8,59.2,29.91,SE,135,0.0,0.0,51,0.00,,---,0.46,VWS V14.01,2013-05-08 23:24:00,
2013-05-08 18:29:00,78.6,59.5,29.91,SE,135,4.3,4.3,52,0.00,,---,0.46,VWS V14.01,2013-05-08 23:29:00,
2013-05-08 18:35:00,78.3,59.7,29.91,SE,135,2.5,2.9,53,0.00,,---,0.46,VWS V14.01,2013-05-08 23:35:00,
2013-05-08 18:40:00,78.3,60.3,29.91,SE,135,1.1,1.6,54,0.00,,---,0.46,VWS V14.01,2013-05-08 23:40:00,
2013-05-08 18:45:00,78.1,60.6,29.88,SE,135,0.0,0.0,55,0.00,,---,0.46,VWS V14.01,2013-05-08 23:45:00,
2013-05-08 18:50:00,77.9,61.0,29.88,SSE,158,0.0,0.0,56,0.00,,---,0.46,VWS V14.01,2013-05-08 23:50:00,
2013-05-08 18:56:00,77.7,60.8,29.88,SE,135,1.6,3.8,56,0.00,,---,0.46,VWS V14.01,2013-05-08 23:56:00,
2013-05-08 19:01:00,77.5,60.6,29.88,SE,135,2.7,3.6,56,0.00,,---,0.46,VWS V14.01,2013-05-09 00:01:00,
2013-05-08 19:06:00,77.4,60.5,29.88,ESE,112,0.0,2.9,56,0.00,,---,0.46,VWS V14.01,2013-05-09 00:06:00,
2013-05-08 19:11:00,77.2,60.8,29.88,SE,135,1.3,2.2,57,0.00,,---,0.46,VWS V14.01,2013-05-09 00:11:00,
2013-05-08 19:17:00,77.0,60.6,29.85,East,90,1.6,1.6,57,0.00,,---,0.46,VWS V14.01,2013-05-09 00:17:00,
2013-05-08 19:23:00,76.6,60.3,29.85,ESE,112,1.1,5.4,57,0.00,,---,0.46,VWS V14.01,2013-05-09 00:23:00,
2013-05-08 19:28:00,76.3,60.0,29.85,SE,135,0.0,3.4,57,0.00,,---,0.46,VWS V14.01,2013-05-09 00:28:00,
2013-05-08 19:34:00,75.9,60.6,29.85,SE,135,2.5,2.7,59,0.00,,---,0.46,VWS V14.01,2013-05-09 00:34:00,
2013-05-08 19:39:00,75.7,60.9,29.85,SSE,158,0.0,4.0,60,0.00,,---,0.46,VWS V14.01,2013-05-09 00:39:00,
2013-05-08 19:45:00,75.4,60.5,29.85,ESE,112,4.7,4.7,60,0.00,,---,0.46,VWS V14.01,2013-05-09 00:45:00,
2013-05-08 19:51:00,71.8,60.2,29.85,SSW,202,7.4,11.9,67,0.00,,---,0.46,VWS V14.01,2013-05-09 00:51:00,
2013-05-08 19:56:00,68.4,56.6,29.85,South,180,2.7,8.7,66,0.00,,---,0.46,VWS V14.01,2013-05-09 00:56:00,
2013-05-08 20:02:00,66.9,58.4,29.88,SSW,202,3.8,4.0,74,0.00,,---,0.46,VWS V14.01,2013-05-09 01:02:00,
2013-05-08 20:07:00,66.9,60.9,29.88,SSE,158,5.8,13.2,81,0.00,,---,0.46,VWS V14.01,2013-05-09 01:07:00,
2013-05-08 20:13:00,66.9,60.9,29.91,South,180,9.6,9.6,81,0.08,,---,0.54,VWS V14.01,2013-05-09 01:13:00,
2013-05-08 20:19:00,66.6,60.2,29.91,SSE,158,7.6,12.1,80,0.08,,---,0.54,VWS V14.01,2013-05-09 01:19:00,
2013-05-08 20:24:00,66.6,59.8,29.91,SSE,158,2.9,6.3,79,0.08,,---,0.54,VWS V14.01,2013-05-09 01:24:00,
2013-05-08 20:30:00,66.2,59.5,29.91,South,180,2.0,2.2,79,0.08,,---,0.54,VWS V14.01,2013-05-09 01:30:00,
2013-05-08 20:36:00,66.2,60.2,29.91,WSW,248,7.4,7.6,81,0.08,,---,0.54,VWS V14.01,2013-05-09 01:36:00,
2013-05-08 20:41:00,65.8,55.0,29.91,WNW,292,7.4,10.7,68,0.08,,---,0.54,VWS V14.01,2013-05-09 01:41:00,
2013-05-08 20:46:00,64.0,51.6,29.94,NNE,22,5.4,12.8,64,0.08,,---,0.54,VWS V14.01,2013-05-09 01:46:00,
2013-05-08 20:51:00,61.9,52.8,29.94,NW,315,2.7,7.6,72,0.08,,---,0.54,VWS V14.01,2013-05-09 01:51:00,
2013-05-08 20:56:00,61.0,51.9,29.94,NNW,338,8.1,8.1,72,0.08,,---,0.54,VWS V14.01,2013-05-09 01:56:00,
2013-05-08 21:02:00,61.5,50.5,29.97,NNW,338,12.3,12.3,67,0.08,,---,0.54,VWS V14.01,2013-05-09 02:02:00,
2013-05-08 21:07:00,63.0,47.0,29.97,NNW,338,12.3,13.0,56,0.08,,---,0.54,VWS V14.01,2013-05-09 02:07:00,
2013-05-08 21:12:00,63.9,46.9,29.97,NW,315,5.6,5.6,54,0.08,,---,0.54,VWS V14.01,2013-05-09 02:12:00,
2013-05-08 21:17:00,65.1,45.0,29.97,NW,315,6.9,13.0,48,0.00,,---,0.54,VWS V14.01,2013-05-09 02:17:00,
2013-05-08 21:23:00,65.8,46.2,29.97,NW,315,3.8,3.8,49,0.00,,---,0.54,VWS V14.01,2013-05-09 02:23:00,
2013-05-08 21:29:00,65.7,45.5,29.97,North,0,5.8,5.8,48,0.00,,---,0.54,VWS V14.01,2013-05-09 02:29:00,
2013-05-08 21:34:00,65.3,45.7,29.97,NNE,22,2.9,4.9,49,0.00,,---,0.54,VWS V14.01,2013-05-09 02:34:00,
2013-05-08 21:40:00,64.8,46.2,29.97,NNW,338,1.6,3.4,51,0.00,,---,0.54,VWS V14.01,2013-05-09 02:40:00,
2013-05-08 21:45:00,64.2,46.2,29.94,NNW,338,0.0,0.0,52,0.00,,---,0.54,VWS V14.01,2013-05-09 02:45:00,
2013-05-08 21:51:00,63.9,45.9,29.94,NW,315,2.0,2.0,52,0.00,,---,0.54,VWS V14.01,2013-05-09 02:51:00,
2013-05-08 21:56:00,63.3,47.4,29.94,ENE,68,0.0,0.0,56,0.00,,---,0.54,VWS V14.01,2013-05-09 02:56:00,
2013-05-08 22:01:00,62.6,49.8,29.94,ENE,68,0.0,0.0,63,0.00,,---,0.54,VWS V14.01,2013-05-09 03:01:00,
2013-05-08 22:07:00,62.1,50.6,29.94,SE,135,4.3,4.3,66,0.00,,---,0.54,VWS V14.01,2013-05-09 03:07:00,
2013-05-08 22:12:00,61.7,50.6,29.94,ESE,112,2.7,3.1,67,0.00,,---,0.54,VWS V14.01,2013-05-09 03:12:00,
2013-05-08 22:17:00,61.9,50.4,29.94,SSE,158,0.0,1.6,66,0.00,,---,0.54,VWS V14.01,2013-05-09 03:17:00,
2013-05-08 22:22:00,61.7,50.6,29.94,SSW,202,0.9,0.9,67,0.00,,---,0.54,VWS V14.01,2013-05-09 03:22:00,
2013-05-08 22:27:00,62.1,51.0,29.97,SSW,202,1.1,1.1,67,0.00,,---,0.54,VWS V14.01,2013-05-09 03:27:00,
2013-05-08 22:33:00,62.2,51.2,29.97,SSW,202,3.4,3.4,67,0.00,,---,0.54,VWS V14.01,2013-05-09 03:33:00,
2013-05-08 22:38:00,62.2,51.6,29.97,SSW,202,0.0,0.9,68,0.00,,---,0.54,VWS V14.01,2013-05-09 03:38:00,
2013-05-08 22:43:00,62.1,51.0,29.97,South,180,0.0,0.0,67,0.00,,---,0.54,VWS V14.01,2013-05-09 03:43:00,
2013-05-08 22:48:00,61.7,51.4,29.97,WSW,248,0.0,0.0,69,0.00,,---,0.54,VWS V14.01,2013-05-09 03:48:00,
2013-05-08 22:54:00,61.3,51.9,29.97,SSW,202,0.0,0.0,71,0.00,,---,0.54,VWS V14.01,2013-05-09 03:54:00,
2013-05-08 23:00:00,61.2,52.5,29.97,SSW,202,2.0,2.7,73,0.00,,---,0.54,VWS V14.01,2013-05-09 04:00:00,
2013-05-08 23:01:00,61.2,52.5,29.97,SSW,202,0.0,2.0,73,0.00,,---,0.54,VWS V14.01,2013-05-09 04:01:00,
2013-05-08 23:02:00,61.2,52.5,29.97,SSW,202,1.1,1.1,73,0.00,,---,0.54,VWS V14.01,2013-05-09 04:02:00,
2013-05-08 23:03:00,61.2,52.1,29.97,SSW,202,2.9,2.9,72,0.00,,---,0.54,VWS V14.01,2013-05-09 04:03:00,
2013-05-08 23:05:00,61.2,52.1,29.97,SW,225,0.0,2.5,72,0.00,,---,0.54,VWS V14.01,2013-05-09 04:05:00,
2013-05-08 23:06:00,61.3,52.2,29.97,SSW,202,2.0,2.9,72,0.00,,---,0.54,VWS V14.01,2013-05-09 04:06:00,
2013-05-08 23:11:00,61.3,52.2,29.97,SW,225,3.1,3.1,72,0.00,,---,0.54,VWS V14.01,2013-05-09 04:11:00,
2013-05-08 23:16:00,61.3,52.2,29.97,SSE,158,0.0,2.7,72,0.00,,---,0.54,VWS V14.01,2013-05-09 04:16:00,
2013-05-08 23:22:00,61.3,52.2,29.97,NW,315,3.1,3.1,72,0.00,,---,0.54,VWS V14.01,2013-05-09 04:22:00,
2013-05-08 23:27:00,61.5,53.5,30.00,WNW,292,7.8,7.8,75,0.00,,---,0.54,VWS V14.01,2013-05-09 04:27:00,
2013-05-08 23:32:00,61.9,53.1,30.00,NNW,338,6.0,8.7,73,0.00,,---,0.54,VWS V14.01,2013-05-09 04:32:00,
2013-05-08 23:37:00,61.9,53.1,30.00,North,0,7.4,9.4,73,0.00,,---,0.54,VWS V14.01,2013-05-09 04:37:00,
2013-05-08 23:43:00,60.8,53.5,30.03,West,270,6.5,12.8,77,0.00,,---,0.54,VWS V14.01,2013-05-09 04:43:00,
2013-05-08 23:48:00,60.1,53.9,30.03,WNW,292,5.8,10.5,80,0.00,,---,0.54,VWS V14.01,2013-05-09 04:48:00,
2013-05-08 23:53:00,59.7,53.5,30.03,NW,315,6.3,7.4,80,0.00,,---,0.54,VWS V14.01,2013-05-09 04:53:00,
2013-05-08 23:58:00,59.5,53.4,30.00,NNW,338,6.0,8.7,80,0.00,,---,0.54,VWS V14.01,2013-05-09 04:58:00,